Time;durP1;ratioP1;P1;durP2;ratioP2;P2;SDS_P1;SDS_P2;PMS_P1;PMS_P2;Temp;Humidity;BMP_temperature;BMP_pressure;BME280_temperature;BME280_humidity;BME280_pressure;Samples;Min_cycle;Max_cycle;Signal;HPM_P1;HPM_P2
2021/11/14 00:00:48;;;;;;;12.00;11.70;;;18.10;74.00;;;;;;5052511;28;20448;-56
2021/11/14 00:03:16;;;;;;;12.43;12.03;;;18.10;74.20;;;;;;5052734;28;20448;-56
2021/11/14 00:05:44;;;;;;;12.53;12.23;;;18.10;74.70;;;;;;5052636;28;20451;-57
2021/11/14 00:08:12;;;;;;;12.43;12.13;;;18.10;74.30;;;;;;5052349;28;20475;-57
2021/11/14 00:10:42;;;;;;;12.63;12.33;;;18.10;74.30;;;;;;5052298;28;20484;-56
2021/11/14 00:13:09;;;;;;;12.87;12.47;;;18.10;74.30;;;;;;5052507;28;20455;-59
2021/11/14 00:15:36;;;;;;;11.77;11.47;;;18.10;74.40;;;;;;5052407;28;20479;-56
2021/11/14 00:18:03;;;;;;;12.17;11.87;;;18.10;74.50;;;;;;5052303;28;20976;-59
2021/11/14 00:20:29;;;;;;;11.87;11.57;;;18.00;74.50;;;;;;5052117;28;20791;-57
2021/11/14 00:22:56;;;;;;;12.73;12.43;;;18.10;74.70;;;;;;5052185;28;20452;-57
2021/11/14 00:25:24;;;;;;;12.37;12.07;;;18.10;74.70;;;;;;5052318;28;20448;-58
2021/11/14 00:27:54;;;;;;;12.43;12.03;;;18.10;74.70;;;;;;5052841;28;20464;-54
2021/11/14 00:30:22;;;;;;;12.40;12.00;;;18.10;74.70;;;;;;5051815;28;20448;-58
2021/11/14 00:32:51;;;;;;;11.87;11.57;;;18.10;74.70;;;;;;5052174;28;20456;-58
2021/11/14 00:35:18;;;;;;;12.20;11.90;;;18.10;74.70;;;;;;5052028;28;20941;-57
2021/11/14 00:37:45;;;;;;;12.50;12.20;;;18.10;74.80;;;;;;5051905;28;20475;-55
2021/11/14 00:40:17;;;;;;;13.03;12.53;;;18.10;74.80;;;;;;5051817;28;20493;-60
2021/11/14 00:42:44;;;;;;;12.20;11.90;;;18.10;74.90;;;;;;5052126;28;20459;-59
2021/11/14 00:45:13;;;;;;;12.50;12.10;;;18.00;74.80;;;;;;5051888;28;20444;-58
2021/11/14 00:47:41;;;;;;;12.80;12.50;;;18.10;75.00;;;;;;5051688;28;20471;-58
2021/11/14 00:50:11;;;;;;;13.07;12.67;;;18.00;74.90;;;;;;5051561;28;20455;-60
2021/11/14 00:52:39;;;;;;;12.80;12.50;;;18.00;74.90;;;;;;5051126;28;20448;-58
2021/11/14 00:55:07;;;;;;;13.10;12.70;;;18.00;74.90;;;;;;5051809;28;20474;-56
2021/11/14 00:57:33;;;;;;;12.17;11.87;;;18.00;75.00;;;;;;5051540;28;20464;-58
2021/11/14 01:00:00;;;;;;;12.63;12.33;;;18.00;74.90;;;;;;5051481;28;20454;-57
2021/11/14 01:02:28;;;;;;;12.80;12.47;;;18.00;75.10;;;;;;5051816;28;20523;-59
2021/11/14 01:04:55;;;;;;;12.73;12.43;;;18.00;75.10;;;;;;5051680;28;20451;-58
2021/11/14 01:07:22;;;;;;;12.03;11.73;;;18.00;75.20;;;;;;5051330;28;20440;-59
2021/11/14 01:09:48;;;;;;;12.00;11.70;;;18.00;75.30;;;;;;5051474;28;20455;-59
2021/11/14 01:12:15;;;;;;;12.80;12.50;;;18.00;75.30;;;;;;5051406;28;20487;-57
2021/11/14 01:14:42;;;;;;;11.70;11.40;;;18.00;75.30;;;;;;5051513;28;20455;-56
2021/11/14 01:17:09;;;;;;;13.10;12.70;;;18.00;75.40;;;;;;5051567;28;20816;-59
2021/11/14 01:19:37;;;;;;;13.90;13.50;;;18.00;75.50;;;;;;5051270;28;20451;-59
2021/11/14 01:22:04;;;;;;;12.00;11.70;;;18.00;75.60;;;;;;5051496;28;20905;-55
2021/11/14 01:24:31;;;;;;;12.43;12.13;;;18.00;75.60;;;;;;5051382;28;20447;-56
2021/11/14 01:26:58;;;;;;;12.30;12.00;;;18.00;75.70;;;;;;5051469;28;20824;-59
2021/11/14 01:29:25;;;;;;;12.17;11.87;;;18.00;75.70;;;;;;5051226;28;20459;-54
2021/11/14 01:31:51;;;;;;;11.90;11.60;;;18.00;75.70;;;;;;5051234;28;20501;-59
2021/11/14 01:34:18;;;;;;;12.40;12.10;;;18.00;75.70;;;;;;5051341;28;20790;-56
2021/11/14 01:36:46;;;;;;;12.73;12.23;;;17.90;75.60;;;;;;5051216;28;20934;-61
2021/11/14 01:39:13;;;;;;;12.40;12.00;;;17.90;75.70;;;;;;5050948;28;21024;-57
2021/11/14 01:41:39;;;;;;;13.00;12.60;;;17.90;75.80;;;;;;5051368;28;20444;-57
2021/11/14 01:44:09;;;;;;;12.87;12.47;;;17.90;75.90;;;;;;5051260;28;20444;-57
2021/11/14 01:46:35;;;;;;;13.07;12.67;;;18.00;75.90;;;;;;5051218;28;20487;-54
2021/11/14 01:49:02;;;;;;;11.93;11.63;;;18.00;75.90;;;;;;5050863;28;20808;-59
2021/11/14 01:51:29;;;;;;;12.10;11.80;;;17.90;75.80;;;;;;5051161;28;20484;-58
2021/11/14 01:53:57;;;;;;;13.10;12.70;;;17.90;75.90;;;;;;5051162;28;20447;-57
2021/11/14 01:56:24;;;;;;;13.23;12.83;;;17.90;76.10;;;;;;5051182;28;20448;-56
2021/11/14 01:58:52;;;;;;;12.33;12.03;;;17.90;76.10;;;;;;5050935;28;20475;-58
2021/11/14 02:01:21;;;;;;;12.90;12.50;;;17.90;76.10;;;;;;5051053;28;20452;-57
2021/11/14 02:03:52;;;;;;;12.60;12.30;;;17.90;76.20;;;;;;5051692;28;20443;-58
2021/11/14 02:06:20;;;;;;;12.70;12.30;;;17.90;76.20;;;;;;5054967;28;20538;-60
2021/11/14 02:08:47;;;;;;;12.10;11.80;;;17.90;76.10;;;;;;5054428;28;20471;-56
2021/11/14 02:11:16;;;;;;;12.30;12.00;;;17.90;76.10;;;;;;5054562;28;21032;-59
2021/11/14 02:13:45;;;;;;;12.67;12.30;;;17.90;76.20;;;;;;5054790;28;20448;-55
2021/11/14 02:16:12;;;;;;;12.70;12.30;;;17.90;76.30;;;;;;5054668;28;20444;-58
2021/11/14 02:18:38;;;;;;;12.30;12.00;;;17.90;76.40;;;;;;5054371;28;20463;-56
2021/11/14 02:21:07;;;;;;;12.27;11.90;;;17.90;76.30;;;;;;5054671;28;20447;-57
2021/11/14 02:23:33;;;;;;;12.30;12.00;;;17.90;76.40;;;;;;5054441;28;20452;-60
2021/11/14 02:26:00;;;;;;;13.13;12.57;;;17.90;76.40;;;;;;5054504;28;20809;-58
2021/11/14 02:28:28;;;;;;;13.00;12.60;;;17.90;76.40;;;;;;5054367;28;20472;-59
2021/11/14 02:30:57;;;;;;;12.30;12.00;;;17.90;76.40;;;;;;5054103;28;20443;-58
2021/11/14 02:33:26;;;;;;;13.13;12.73;;;17.90;76.40;;;;;;5054515;28;20455;-56
2021/11/14 02:35:55;;;;;;;12.60;12.30;;;17.90;76.40;;;;;;5054409;28;20452;-57
2021/11/14 02:38:24;;;;;;;12.37;12.07;;;17.90;76.50;;;;;;5054301;28;20468;-56
2021/11/14 02:40:52;;;;;;;12.47;12.17;;;17.80;76.60;;;;;;5054010;28;20506;-55
2021/11/14 02:43:19;;;;;;;12.90;12.50;;;17.80;76.70;;;;;;5054213;28;20455;-59
2021/11/14 02:45:46;;;;;;;12.90;12.60;;;17.80;76.70;;;;;;5054118;28;20444;-59
2021/11/14 02:48:15;;;;;;;13.23;12.83;;;17.80;76.70;;;;;;5054084;28;20822;-58
2021/11/14 02:50:42;;;;;;;12.43;12.13;;;17.80;76.80;;;;;;5053925;28;20447;-59
2021/11/14 02:53:10;;;;;;;11.87;11.57;;;17.80;76.80;;;;;;5053945;28;20495;-58
2021/11/14 02:55:39;;;;;;;12.50;12.20;;;17.80;76.80;;;;;;5053946;28;20439;-60
2021/11/14 02:58:07;;;;;;;12.90;12.60;;;17.80;76.80;;;;;;5053837;28;20471;-59
2021/11/14 03:00:37;;;;;;;12.57;12.17;;;17.80;76.90;;;;;;5053651;28;20475;-55
2021/11/14 03:03:04;;;;;;;12.50;12.20;;;17.80;76.90;;;;;;5053971;28;20444;-59
2021/11/14 03:05:31;;;;;;;13.30;12.90;;;17.80;77.10;;;;;;5053739;28;20855;-57
2021/11/14 03:07:58;;;;;;;12.77;12.47;;;17.80;77.10;;;;;;5053505;28;21012;-57
2021/11/14 03:10:27;;;;;;;12.67;12.37;;;17.80;77.20;;;;;;5053507;28;20444;-60
2021/11/14 03:12:57;;;;;;;12.50;12.20;;;17.80;77.20;;;;;;5053583;28;20487;-59
2021/11/14 03:15:25;;;;;;;12.50;12.20;;;17.80;76.90;;;;;;5053076;28;20444;-60
2021/11/14 03:17:52;;;;;;;13.00;12.60;;;17.80;76.90;;;;;;5053360;28;20487;-59
2021/11/14 03:20:19;;;;;;;12.60;12.20;;;17.80;77.20;;;;;;5053375;28;20921;-58
2021/11/14 03:22:45;;;;;;;12.80;12.40;;;17.80;77.30;;;;;;5053551;28;20853;-58
2021/11/14 03:25:12;;;;;;;13.13;12.73;;;17.80;77.20;;;;;;5053329;28;20444;-59
2021/11/14 03:27:39;;;;;;;12.93;12.60;;;17.80;77.30;;;;;;5053229;28;20831;-60
2021/11/14 03:30:08;;;;;;;12.60;12.30;;;17.80;77.30;;;;;;5053184;28;20448;-55
2021/11/14 03:32:35;;;;;;;13.00;12.60;;;17.80;77.30;;;;;;5053246;28;21008;-57
2021/11/14 03:35:02;;;;;;;12.57;12.17;;;17.80;77.30;;;;;;5053166;28;20440;-54
2021/11/14 03:37:29;;;;;;;12.70;12.40;;;17.80;77.40;;;;;;5053112;28;20551;-59
2021/11/14 03:39:55;;;;;;;12.70;12.40;;;17.80;77.50;;;;;;5052979;28;20448;-57
2021/11/14 03:42:22;;;;;;;13.00;12.60;;;17.80;77.30;;;;;;5053177;28;20778;-54
2021/11/14 03:44:49;;;;;;;12.60;12.30;;;17.80;78.30;;;;;;5053098;28;20950;-57
2021/11/14 03:47:17;;;;;;;12.30;12.00;;;17.70;77.50;;;;;;5052975;28;20853;-60
2021/11/14 03:49:44;;;;;;;12.57;12.27;;;17.80;77.60;;;;;;5052776;28;20452;-57
2021/11/14 03:52:11;;;;;;;12.63;12.23;;;17.70;77.60;;;;;;5052776;28;20480;-60
2021/11/14 03:54:39;;;;;;;12.33;12.03;;;17.70;77.50;;;;;;5052909;28;20452;-57
2021/11/14 03:57:07;;;;;;;11.80;11.50;;;17.70;77.70;;;;;;5052815;28;20441;-56
2021/11/14 03:59:35;;;;;;;12.00;11.70;;;17.80;77.80;;;;;;5052536;28;20448;-60
2021/11/14 04:02:03;;;;;;;12.70;12.40;;;17.70;77.70;;;;;;5052748;28;20820;-60
2021/11/14 04:04:31;;;;;;;13.00;12.60;;;17.80;77.80;;;;;;5052819;28;20948;-56
2021/11/14 04:06:58;;;;;;;12.30;12.00;;;17.70;77.80;;;;;;5052664;28;20809;-58
2021/11/14 04:09:25;;;;;;;13.13;12.73;;;17.70;77.90;;;;;;5052179;28;20476;-58
2021/11/14 04:11:52;;;;;;;13.07;12.67;;;17.70;77.80;;;;;;5052350;28;20479;-57
2021/11/14 04:14:19;;;;;;;13.20;12.80;;;17.70;77.90;;;;;;5052559;28;20794;-58
2021/11/14 04:16:46;;;;;;;13.10;12.70;;;17.70;78.00;;;;;;5052282;28;20448;-56
2021/11/14 04:19:13;;;;;;;12.77;12.47;;;17.70;77.90;;;;;;5051994;28;20478;-59
2021/11/14 04:21:41;;;;;;;12.70;12.40;;;17.70;78.00;;;;;;5052400;28;20842;-57
2021/11/14 04:24:08;;;;;;;12.70;12.30;;;17.70;77.90;;;;;;5052293;28;20455;-58
2021/11/14 04:26:35;;;;;;;12.73;12.40;;;17.70;77.90;;;;;;5052225;28;20796;-58
2021/11/14 04:29:01;;;;;;;12.80;12.40;;;17.70;78.10;;;;;;5052053;28;20559;-58
2021/11/14 04:31:28;;;;;;;12.10;11.80;;;17.70;78.10;;;;;;5052181;28;20456;-55
2021/11/14 04:33:55;;;;;;;12.23;11.90;;;17.70;78.30;;;;;;5052080;28;20444;-58
2021/11/14 04:36:21;;;;;;;13.50;13.10;;;17.70;78.20;;;;;;5052054;28;20444;-61
2021/11/14 04:38:49;;;;;;;12.70;12.30;;;17.70;78.20;;;;;;5051733;28;20487;-60
2021/11/14 04:41:16;;;;;;;13.10;12.70;;;17.70;78.40;;;;;;5051979;28;20459;-60
2021/11/14 04:43:43;;;;;;;12.70;12.40;;;17.70;78.30;;;;;;5052145;28;20445;-59
2021/11/14 04:46:10;;;;;;;12.37;12.07;;;17.70;78.40;;;;;;5051945;28;20514;-59
2021/11/14 04:48:36;;;;;;;12.83;12.43;;;17.70;78.30;;;;;;5051736;28;20464;-58
2021/11/14 04:51:03;;;;;;;12.50;12.20;;;17.70;78.30;;;;;;5051867;28;20453;-61
2021/11/14 04:53:30;;;;;;;12.47;12.17;;;17.70;78.40;;;;;;5051616;28;20492;-61
2021/11/14 04:55:58;;;;;;;12.93;12.53;;;17.70;79.20;;;;;;5051881;28;20452;-57
2021/11/14 04:58:26;;;;;;;13.43;13.03;;;17.70;78.40;;;;;;5052024;28;20468;-56
2021/11/14 05:00:53;;;;;;;13.00;12.60;;;17.60;78.50;;;;;;5051647;28;20445;-59
2021/11/14 05:03:21;;;;;;;12.93;12.60;;;17.70;78.60;;;;;;5051683;28;20539;-57
2021/11/14 05:05:49;;;;;;;14.37;13.97;;;17.70;78.60;;;;;;5051707;28;20448;-61
2021/11/14 05:08:15;;;;;;;12.60;12.20;;;17.60;78.60;;;;;;5073297;22;20499;-49
2021/11/14 05:10:46;;;;;;;12.40;12.10;;;17.60;78.70;;;;;;5043019;28;20436;-49
2021/11/14 05:13:14;;;;;;;13.30;12.90;;;17.70;78.70;;;;;;5051524;28;20658;-52
2021/11/14 05:15:41;;;;;;;12.60;12.20;;;17.60;78.70;;;;;;5051535;28;20447;-49
2021/11/14 05:18:07;;;;;;;12.30;12.00;;;17.60;78.90;;;;;;5051394;28;20460;-50
2021/11/14 05:20:34;;;;;;;12.63;12.23;;;17.70;79.60;;;;;;5051192;28;20444;-48
2021/11/14 05:23:01;;;;;;;13.03;12.63;;;17.70;78.70;;;;;;5051399;28;20944;-52
2021/11/14 05:25:28;;;;;;;12.37;12.07;;;17.70;78.60;;;;;;5051393;28;20938;-53
2021/11/14 05:27:54;;;;;;;13.00;12.60;;;17.70;78.60;;;;;;5051313;28;20981;-52
2021/11/14 05:30:23;;;;;;;13.07;12.67;;;17.70;78.80;;;;;;5051170;28;20503;-53
2021/11/14 05:32:50;;;;;;;12.63;12.23;;;17.70;78.80;;;;;;5051289;28;20488;-54
2021/11/14 05:35:17;;;;;;;13.23;12.83;;;17.60;78.80;;;;;;5051286;28;20447;-49
2021/11/14 05:37:44;;;;;;;13.20;12.80;;;17.60;78.90;;;;;;5051333;28;20454;-53
2021/11/14 05:40:11;;;;;;;13.10;12.70;;;17.60;79.00;;;;;;5054066;28;20444;-49
2021/11/14 05:42:38;;;;;;;12.37;12.07;;;17.70;79.00;;;;;;5055348;28;20443;-49
2021/11/14 05:45:06;;;;;;;12.80;12.40;;;17.60;79.00;;;;;;5055347;28;20444;-50
2021/11/14 05:47:34;;;;;;;12.60;12.30;;;17.60;79.00;;;;;;5055121;28;20957;-49
2021/11/14 05:50:01;;;;;;;13.70;13.30;;;17.60;79.20;;;;;;5054966;28;20467;-50
2021/11/14 05:52:28;;;;;;;12.90;12.60;;;18.20;80.30;;;;;;5055203;28;21000;-51
2021/11/14 05:54:55;;;;;;;13.00;12.67;;;19.10;77.70;;;;;;5055165;28;20454;-49
2021/11/14 05:57:21;;;;;;;13.90;13.40;;;20.00;74.00;;;;;;5055344;28;20851;-49
2021/11/14 05:59:54;;;;;;;13.73;13.33;;;20.60;70.70;;;;;;5054748;28;20467;-53
2021/11/14 06:02:32;;;;;;;13.10;12.80;;;21.30;67.80;;;;;;5055106;28;20495;-49
2021/11/14 06:05:10;;;;;;;13.90;13.50;;;21.70;64.70;;;;;;5055121;28;20506;-50
2021/11/14 06:07:37;;;;;;;13.90;13.50;;;21.90;63.00;;;;;;5054700;28;20448;-50
2021/11/14 06:10:04;;;;;;;14.23;13.73;;;22.10;61.60;;;;;;5054654;28;20456;-51
2021/11/14 06:12:31;;;;;;;13.00;12.60;;;22.20;60.90;;;;;;5054728;28;20480;-50
2021/11/14 06:14:58;;;;;;;13.80;13.40;;;22.20;60.20;;;;;;5054704;28;20440;-49
2021/11/14 06:17:25;;;;;;;14.27;13.87;;;22.20;59.90;;;;;;5054687;28;20794;-51
2021/11/14 06:19:52;;;;;;;13.93;13.53;;;22.30;59.70;;;;;;5054496;28;20452;-53
2021/11/14 06:22:20;;;;;;;13.63;13.23;;;22.30;59.50;;;;;;5054577;28;20530;-49
2021/11/14 06:24:47;;;;;;;13.90;13.50;;;22.30;59.40;;;;;;5054622;28;20447;-56
2021/11/14 06:27:14;;;;;;;13.73;13.33;;;22.30;59.10;;;;;;5054562;28;20448;-51
2021/11/14 06:29:41;;;;;;;13.63;13.23;;;22.20;59.20;;;;;;5054223;28;20471;-56
2021/11/14 06:32:08;;;;;;;13.87;13.47;;;22.20;59.10;;;;;;5054518;28;20790;-52
2021/11/14 06:34:35;;;;;;;14.17;13.70;;;22.20;59.10;;;;;;5054488;28;20448;-56
2021/11/14 06:37:02;;;;;;;14.30;13.90;;;22.10;59.10;;;;;;5054365;28;20812;-54
2021/11/14 06:39:30;;;;;;;13.70;13.30;;;22.10;59.10;;;;;;5053980;28;21021;-51
2021/11/14 06:41:57;;;;;;;14.50;14.10;;;22.00;59.10;;;;;;5054338;28;20444;-52
2021/11/14 06:44:23;;;;;;;14.80;14.40;;;22.00;59.20;;;;;;5054155;28;20440;-53
2021/11/14 06:46:50;;;;;;;9.50;9.30;;;21.90;59.30;;;;;;5054186;28;20444;-49
2021/11/14 06:49:17;;;;;;;8.97;8.77;;;21.90;59.40;;;;;;5053758;28;20468;-49
2021/11/14 06:51:43;;;;;;;9.20;9.00;;;21.80;59.50;;;;;;5052720;28;20529;-51
2021/11/14 06:54:10;;;;;;;9.00;8.80;;;21.80;59.70;;;;;;5053945;28;20484;-49
2021/11/14 06:56:38;;;;;;;9.00;8.80;;;21.70;59.70;;;;;;5053872;28;20440;-50
2021/11/14 06:59:05;;;;;;;10.20;9.93;;;21.60;59.90;;;;;;5053611;28;20472;-49
2021/11/14 07:01:32;;;;;;;9.10;8.90;;;21.50;60.00;;;;;;5053908;28;20444;-53
2021/11/14 07:03:58;;;;;;;9.20;9.00;;;21.50;60.30;;;;;;5053797;28;20776;-50
2021/11/14 07:06:25;;;;;;;8.70;8.50;;;21.40;60.40;;;;;;5053765;28;20519;-50
2021/11/14 07:08:52;;;;;;;9.60;9.40;;;21.30;60.60;;;;;;5053456;28;20480;-49
2021/11/14 07:11:18;;;;;;;10.00;9.80;;;21.30;60.90;;;;;;5053711;28;20452;-52
2021/11/14 07:13:47;;;;;;;10.07;9.87;;;21.30;61.00;;;;;;5053615;28;20476;-49
2021/11/14 07:16:14;;;;;;;9.60;9.40;;;21.20;61.10;;;;;;5053535;28;20819;-51
2021/11/14 07:18:41;;;;;;;9.50;9.30;;;21.20;61.30;;;;;;5053276;28;20464;-49
2021/11/14 07:21:08;;;;;;;10.23;10.03;;;21.10;61.50;;;;;;5053450;28;20443;-54
2021/11/14 07:23:35;;;;;;;9.20;9.00;;;21.00;61.50;;;;;;5053457;28;20444;-50
2021/11/14 07:26:01;;;;;;;9.70;9.50;;;21.00;61.80;;;;;;5053415;28;20929;-51
2021/11/14 07:28:28;;;;;;;9.60;9.40;;;21.00;62.00;;;;;;5053282;28;20467;-49
2021/11/14 07:30:56;;;;;;;9.30;9.00;;;20.90;62.10;;;;;;5053105;28;20892;-50
2021/11/14 07:33:23;;;;;;;8.90;8.70;;;20.90;62.30;;;;;;5053217;28;20476;-49
2021/11/14 07:35:50;;;;;;;9.07;8.87;;;20.90;62.50;;;;;;5053281;28;20929;-52
2021/11/14 07:38:16;;;;;;;9.00;8.77;;;20.80;62.50;;;;;;5053050;28;20487;-51
2021/11/14 07:40:43;;;;;;;9.43;9.13;;;20.80;62.70;;;;;;5052976;28;20455;-50
2021/11/14 07:43:10;;;;;;;9.37;9.10;;;20.70;62.80;;;;;;5053070;28;20944;-50
2021/11/14 07:45:36;;;;;;;8.73;8.53;;;20.70;63.00;;;;;;5052872;28;20821;-51
2021/11/14 07:48:06;;;;;;;8.77;8.57;;;20.60;63.10;;;;;;5052861;28;20460;-51
2021/11/14 07:50:33;;;;;;;9.53;9.23;;;20.60;63.30;;;;;;5052735;28;20501;-49
2021/11/14 07:53:02;;;;;;;9.37;9.17;;;20.60;63.50;;;;;;5052628;28;20483;-49
2021/11/14 07:55:29;;;;;;;9.87;9.57;;;20.50;63.50;;;;;;5052709;28;20467;-53
2021/11/14 07:57:58;;;;;;;10.13;9.83;;;20.50;63.70;;;;;;5052859;28;20529;-53
2021/11/14 08:00:25;;;;;;;9.80;9.50;;;20.50;63.90;;;;;;5052598;28;20544;-48
2021/11/14 08:02:52;;;;;;;9.40;9.20;;;20.40;63.90;;;;;;5052307;28;20440;-52
2021/11/14 08:05:21;;;;;;;9.50;9.20;;;20.40;64.10;;;;;;5052774;28;20476;-48
2021/11/14 08:07:49;;;;;;;9.73;9.53;;;20.40;64.30;;;;;;5052416;28;20484;-50
2021/11/14 08:10:18;;;;;;;9.50;9.30;;;20.40;64.40;;;;;;5052379;28;20455;-50
2021/11/14 08:12:44;;;;;;;8.57;8.37;;;20.30;64.50;;;;;;5052446;28;20445;-50
2021/11/14 08:15:11;;;;;;;9.17;8.80;;;20.30;65.40;;;;;;5052378;28;20436;-49
2021/11/14 08:17:38;;;;;;;9.57;9.33;;;20.20;64.60;;;;;;5052322;28;20440;-52
2021/11/14 08:20:06;;;;;;;8.97;8.70;;;20.20;64.90;;;;;;5052176;28;20463;-48
2021/11/14 08:22:34;;;;;;;9.00;8.80;;;20.20;65.20;;;;;;5052198;28;20451;-48
2021/11/14 08:25:02;;;;;;;9.77;9.47;;;20.20;65.10;;;;;;5052350;28;20443;-48
2021/11/14 08:27:31;;;;;;;9.17;8.97;;;20.10;65.20;;;;;;5052125;28;21041;-50
2021/11/14 08:29:58;;;;;;;9.37;9.07;;;20.10;65.40;;;;;;5051991;28;20494;-48
2021/11/14 08:32:25;;;;;;;9.70;9.40;;;20.00;65.50;;;;;;5052053;28;20440;-54
2021/11/14 08:34:52;;;;;;;9.90;9.60;;;20.00;65.60;;;;;;5051961;28;20480;-50
2021/11/14 08:37:18;;;;;;;9.50;9.30;;;20.00;65.80;;;;;;5052062;28;20444;-55
2021/11/14 08:39:48;;;;;;;9.00;8.80;;;20.00;65.90;;;;;;5051769;28;20468;-55
2021/11/14 08:42:15;;;;;;;8.40;8.20;;;20.00;66.00;;;;;;5051884;28;20794;-54
2021/11/14 08:44:42;;;;;;;9.10;8.80;;;20.00;66.20;;;;;;5052055;28;20459;-54
2021/11/14 08:47:09;;;;;;;10.50;10.20;;;19.90;66.30;;;;;;5051896;28;20455;-56
2021/11/14 08:49:36;;;;;;;9.73;9.43;;;19.90;66.40;;;;;;5051550;28;20491;-53
2021/11/14 08:52:04;;;;;;;7.97;7.77;;;19.80;66.40;;;;;;5051873;28;20452;-57
2021/11/14 08:54:31;;;;;;;8.80;8.57;;;19.80;66.60;;;;;;5051731;28;20911;-55
2021/11/14 08:56:59;;;;;;;9.37;9.17;;;19.80;66.80;;;;;;5051649;28;20955;-49
2021/11/14 08:59:28;;;;;;;7.60;7.40;;;19.80;67.00;;;;;;5051384;28;20491;-52
2021/11/14 09:01:55;;;;;;;7.50;7.30;;;19.70;67.10;;;;;;5051694;28;21052;-50
2021/11/14 09:04:21;;;;;;;8.60;8.40;;;19.70;67.30;;;;;;5051746;28;20444;-49
2021/11/14 09:06:48;;;;;;;8.50;8.30;;;19.60;67.30;;;;;;5051602;28;20497;-52
2021/11/14 09:09:15;;;;;;;8.43;8.23;;;19.70;67.70;;;;;;5051189;28;20762;-49
2021/11/14 09:11:44;;;;;;;9.67;9.37;;;19.60;67.60;;;;;;5051453;28;20455;-50
2021/11/14 09:14:13;;;;;;;9.57;9.27;;;19.50;67.80;;;;;;5050793;28;20865;-54
2021/11/14 09:16:40;;;;;;;10.47;9.97;;;19.50;68.00;;;;;;5051547;28;20440;-49
2021/11/14 09:19:09;;;;;;;9.47;9.17;;;19.50;68.00;;;;;;5051268;28;20464;-53
2021/11/14 09:21:37;;;;;;;9.63;9.40;;;19.50;68.20;;;;;;5051696;28;20452;-58
2021/11/14 09:24:03;;;;;;;9.77;9.47;;;19.50;68.40;;;;;;5051401;28;20439;-60
2021/11/14 09:26:30;;;;;;;9.60;9.30;;;19.40;68.40;;;;;;5051506;28;20463;-59
2021/11/14 09:28:57;;;;;;;9.10;8.90;;;19.40;68.60;;;;;;5051078;28;20460;-55
2021/11/14 09:31:25;;;;;;;9.00;8.80;;;19.40;68.80;;;;;;5051318;28;20845;-57
2021/11/14 09:33:54;;;;;;;9.10;8.90;;;19.40;68.90;;;;;;5051218;28;20476;-58
2021/11/14 09:36:21;;;;;;;9.00;8.80;;;19.40;69.00;;;;;;5051384;28;20960;-55
2021/11/14 09:38:48;;;;;;;9.53;9.23;;;19.40;69.10;;;;;;5050996;28;20468;-51
2021/11/14 09:41:15;;;;;;;9.40;9.20;;;19.40;69.20;;;;;;5050944;28;20506;-51
2021/11/14 09:43:41;;;;;;;9.77;9.53;;;19.40;69.20;;;;;;5051018;28;20448;-53
2021/11/14 09:46:08;;;;;;;8.67;8.47;;;19.40;69.20;;;;;;5051127;28;20813;-54
2021/11/14 09:48:36;;;;;;;9.07;8.77;;;19.50;69.00;;;;;;5050863;28;20475;-50
2021/11/14 09:51:04;;;;;;;9.53;9.33;;;19.50;69.00;;;;;;5051056;28;20447;-49
2021/11/14 09:53:33;;;;;;;9.17;8.90;;;19.50;68.80;;;;;;5051119;28;20483;-53
2021/11/14 09:56:01;;;;;;;9.10;8.90;;;19.50;68.80;;;;;;5051073;28;20460;-49
2021/11/14 09:58:28;;;;;;;9.23;9.00;;;19.50;68.90;;;;;;5051009;28;20460;-49
2021/11/14 10:00:56;;;;;;;9.00;8.73;;;19.50;68.70;;;;;;5050926;28;20471;-49
2021/11/14 10:03:23;;;;;;;9.40;9.10;;;19.50;68.70;;;;;;5050990;28;20456;-54
2021/11/14 10:05:51;;;;;;;9.60;9.30;;;19.50;68.60;;;;;;5050965;28;20447;-49
2021/11/14 10:08:20;;;;;;;8.90;8.70;;;19.50;68.80;;;;;;5050747;28;20478;-50
2021/11/14 10:10:48;;;;;;;9.97;9.67;;;19.50;68.80;;;;;;5050911;28;20440;-56
2021/11/14 10:13:18;;;;;;;9.33;9.03;;;19.40;68.80;;;;;;5050826;28;20546;-53
2021/11/14 10:15:45;;;;;;;9.47;9.17;;;19.40;68.80;;;;;;5050942;28;20440;-51
2021/11/14 10:18:13;;;;;;;9.20;9.00;;;19.40;69.00;;;;;;5050936;28;20469;-53
2021/11/14 10:20:40;;;;;;;8.90;8.70;;;19.40;69.20;;;;;;5050649;28;20479;-54
2021/11/14 10:23:12;;;;;;;9.50;9.30;;;19.30;69.20;;;;;;5050828;28;20448;-52
2021/11/14 10:25:39;;;;;;;8.43;8.23;;;19.30;69.30;;;;;;5052800;28;20511;-53
2021/11/14 10:28:07;;;;;;;8.97;8.67;;;19.30;69.40;;;;;;5054314;28;20459;-50
2021/11/14 10:30:38;;;;;;;9.50;9.30;;;19.20;69.50;;;;;;5054119;28;20451;-49
2021/11/14 10:33:06;;;;;;;9.27;9.07;;;19.20;69.70;;;;;;5054342;28;20896;-52
2021/11/14 10:35:34;;;;;;;9.20;8.90;;;19.20;69.80;;;;;;5054254;28;20479;-53
2021/11/14 10:38:03;;;;;;;9.80;9.50;;;19.20;69.90;;;;;;5054307;28;20810;-51
2021/11/14 10:40:34;;;;;;;10.40;10.10;;;19.20;69.90;;;;;;5054127;28;20503;-56
2021/11/14 10:43:02;;;;;;;10.17;9.87;;;19.20;70.00;;;;;;5054293;28;20891;-51
2021/11/14 10:45:30;;;;;;;9.90;9.60;;;19.20;70.00;;;;;;5054167;28;20440;-60
2021/11/14 10:47:59;;;;;;;8.90;8.70;;;19.10;70.10;;;;;;5054026;28;20468;-61
2021/11/14 10:50:31;;;;;;;9.27;9.07;;;19.20;70.30;;;;;;5053966;28;20809;-60
2021/11/14 10:53:01;;;;;;;9.87;9.57;;;19.20;70.30;;;;;;5054075;28;20483;-60
2021/11/14 10:55:32;;;;;;;10.03;9.73;;;19.30;70.40;;;;;;5054081;28;20487;-60
2021/11/14 10:58:00;;;;;;;10.00;9.73;;;19.30;70.10;;;;;;5053732;28;20474;-61
2021/11/14 11:00:29;;;;;;;9.50;9.20;;;19.40;70.10;;;;;;5053703;28;20802;-61
2021/11/14 11:02:55;;;;;;;9.50;9.30;;;19.40;69.80;;;;;;5053641;28;20440;-61
2021/11/14 11:05:24;;;;;;;9.63;9.33;;;19.40;69.60;;;;;;5053761;28;20432;-60
2021/11/14 11:07:59;;;;;;;9.10;8.90;;;19.40;69.60;;;;;;5078155;22;20484;-57
2021/11/14 11:10:30;;;;;;;8.50;8.30;;;19.40;69.50;;;;;;5021082;28;20460;-60
2021/11/14 11:12:59;;;;;;;8.83;8.63;;;19.40;69.40;;;;;;5032301;28;20452;-57
2021/11/14 11:15:25;;;;;;;9.20;9.00;;;19.40;69.40;;;;;;5033633;28;20539;-58
2021/11/14 11:17:55;;;;;;;8.30;8.10;;;19.40;69.30;;;;;;5033752;28;20768;-59
2021/11/14 11:20:24;;;;;;;10.27;9.97;;;19.50;69.50;;;;;;5033542;28;20479;-60
2021/11/14 11:22:55;;;;;;;9.17;8.97;;;19.40;69.30;;;;;;5033486;28;20938;-60
2021/11/14 11:25:34;;;;;;;9.10;8.80;;;19.40;69.40;;;;;;5033471;28;20927;-60
2021/11/14 11:28:03;;;;;;;8.63;8.33;;;19.40;69.50;;;;;;5033541;28;20452;-61
2021/11/14 11:30:33;;;;;;;8.53;8.33;;;19.40;69.60;;;;;;5033293;28;20449;-61
2021/11/14 11:33:01;;;;;;;9.33;9.13;;;19.40;69.70;;;;;;5033307;28;20784;-61
2021/11/14 11:35:28;;;;;;;9.70;9.50;;;19.30;69.70;;;;;;5033187;28;20491;-61
2021/11/14 11:37:56;;;;;;;9.60;9.40;;;19.30;69.90;;;;;;5032578;28;20456;-60
2021/11/14 11:40:23;;;;;;;9.33;9.13;;;19.20;69.90;;;;;;5033093;28;20441;-60
2021/11/14 11:42:49;;;;;;;9.10;8.87;;;19.20;70.10;;;;;;5033140;28;20448;-60
2021/11/14 11:45:26;;;;;;;9.40;9.20;;;19.20;70.20;;;;;;5033124;28;20448;-60
2021/11/14 11:47:54;;;;;;;9.53;9.23;;;19.20;70.30;;;;;;5032966;28;20445;-59
2021/11/14 11:50:26;;;;;;;9.23;9.03;;;19.20;70.40;;;;;;5032739;28;20448;-58
2021/11/14 11:52:53;;;;;;;9.30;9.00;;;19.20;70.50;;;;;;5033121;28;20446;-61
2021/11/14 11:55:22;;;;;;;9.80;9.50;;;19.20;70.50;;;;;;5032688;28;21040;-61
2021/11/14 11:57:49;;;;;;;10.03;9.73;;;19.20;70.50;;;;;;5032603;28;20449;-59
2021/11/14 12:00:18;;;;;;;10.87;10.57;;;19.20;70.50;;;;;;5032605;28;20437;-59
2021/11/14 12:02:45;;;;;;;10.30;10.00;;;19.20;70.30;;;;;;5032841;28;20977;-59
2021/11/14 12:05:14;;;;;;;10.50;10.20;;;19.20;70.50;;;;;;5032713;28;20799;-61
2021/11/14 12:07:46;;;;;;;10.30;10.00;;;19.30;70.20;;;;;;5032766;28;20821;-61
2021/11/14 12:10:17;;;;;;;10.23;9.97;;;19.30;70.00;;;;;;5032503;28;20857;-61
2021/11/14 12:12:51;;;;;;;10.87;10.57;;;19.30;70.00;;;;;;5032700;28;20819;-61
2021/11/14 12:15:22;;;;;;;10.60;10.30;;;19.30;70.00;;;;;;5032454;28;20484;-61
2021/11/14 12:17:53;;;;;;;10.97;10.67;;;19.40;70.00;;;;;;5032641;28;20575;-61
2021/11/14 12:20:27;;;;;;;10.67;10.37;;;19.60;69.40;;;;;;5032391;28;20445;-57
2021/11/14 12:22:58;;;;;;;11.10;10.80;;;19.90;68.80;;;;;;5032558;28;20445;-61
2021/11/14 12:25:30;;;;;;;11.13;10.83;;;20.10;68.10;;;;;;5032413;28;20862;-59
2021/11/14 12:28:00;;;;;;;11.30;11.00;;;20.20;67.10;;;;;;5032162;28;20451;-60
2021/11/14 12:30:29;;;;;;;10.80;10.50;;;20.40;66.60;;;;;;5032231;28;20462;-57
2021/11/14 12:32:56;;;;;;;10.60;10.30;;;20.50;65.90;;;;;;5032115;28;20964;-59
2021/11/14 12:35:26;;;;;;;10.30;10.10;;;20.60;65.20;;;;;;5032104;28;20538;-60
2021/11/14 12:37:57;;;;;;;10.90;10.60;;;20.70;64.70;;;;;;5032311;28;20821;-61